createdAt,value
2017-06-10T00:00:16.314Z,17.64
2017-06-10T00:01:25.584Z,17.66
2017-06-10T00:02:34.547Z,17.75
2017-06-10T00:03:43.962Z,17.72
2017-06-10T00:04:53.566Z,17.74
2017-06-10T00:06:04.250Z,17.66
2017-06-10T00:07:13.518Z,17.71
2017-06-10T00:08:23.478Z,17.81
2017-06-10T00:09:33.167Z,17.81
2017-06-10T00:10:42.900Z,17.77
2017-06-10T00:11:51.855Z,17.78
2017-06-10T00:13:08.339Z,17.68
2017-06-10T00:14:33.142Z,17.75
2017-06-10T00:15:57.079Z,17.75
2017-06-10T00:17:15.749Z,17.75
2017-06-10T00:18:26.174Z,17.81
2017-06-10T00:19:35.905Z,17.7
2017-06-10T00:20:45.753Z,17.77
2017-06-10T00:21:55.592Z,17.75
2017-06-10T00:23:04.909Z,17.75
2017-06-10T00:24:13.863Z,17.74
2017-06-10T00:25:22.819Z,17.75
2017-06-10T00:26:31.778Z,17.75
2017-06-10T00:27:41.066Z,17.68
2017-06-10T00:28:50.027Z,17.77
2017-06-10T00:29:58.985Z,17.68
2017-06-10T00:31:07.943Z,17.59
2017-06-10T00:32:17.345Z,17.71
2017-06-10T00:33:26.304Z,17.75
2017-06-10T00:34:35.569Z,17.7
2017-06-10T00:35:44.564Z,17.72
2017-06-10T00:36:53.620Z,17.68
2017-06-10T00:38:02.577Z,17.66
2017-06-10T00:39:11.537Z,17.7
2017-06-10T00:40:20.518Z,17.64
2017-06-10T00:41:29.661Z,17.66
2017-06-10T00:42:38.730Z,17.63
2017-06-10T00:43:47.769Z,17.64
2017-06-10T00:44:56.841Z,17.66
2017-06-10T00:46:05.867Z,17.63
2017-06-10T00:47:14.837Z,17.7
2017-06-10T00:48:24.145Z,17.66
2017-06-10T00:49:33.171Z,17.58
2017-06-10T00:50:42.214Z,17.59
2017-06-10T00:51:51.289Z,17.56
2017-06-10T00:53:00.255Z,17.58
2017-06-10T00:54:09.258Z,17.55
2017-06-10T00:55:18.222Z,17.62
2017-06-10T00:56:27.198Z,17.58
2017-06-10T00:57:36.228Z,17.62
2017-06-10T00:58:45.655Z,17.54
2017-06-10T00:59:54.614Z,17.54
2017-06-10T01:01:03.572Z,17.56
2017-06-10T01:02:12.531Z,17.58
2017-06-10T01:03:21.580Z,17.52
2017-06-10T01:04:31.291Z,17.56
2017-06-10T01:05:42.342Z,17.58
2017-06-10T01:06:51.304Z,17.58
2017-06-10T01:08:00.264Z,17.59
2017-06-10T01:09:09.228Z,17.56
2017-06-10T01:10:18.436Z,17.55
2017-06-10T01:11:27.649Z,17.55
2017-06-10T01:12:36.962Z,17.55
2017-06-10T01:13:46.525Z,17.63
2017-06-10T01:14:55.906Z,17.56
2017-06-10T01:16:05.153Z,17.58
2017-06-10T01:17:14.476Z,17.64
2017-06-10T01:18:23.911Z,17.66
2017-06-10T01:19:33.718Z,17.7
2017-06-10T01:20:43.939Z,17.62
2017-06-10T01:21:55.536Z,17.58
2017-06-10T01:23:04.496Z,17.55
2017-06-10T01:24:15.645Z,17.54
2017-06-10T01:25:24.686Z,17.56
2017-06-10T01:26:38.028Z,17.58
2017-06-10T01:27:48.826Z,17.55
2017-06-10T01:28:57.788Z,17.51
2017-06-10T01:30:08.907Z,17.51
2017-06-10T01:31:18.988Z,17.52
2017-06-10T01:32:30.050Z,17.49
2017-06-10T01:33:40.681Z,17.46
2017-06-10T01:34:53.525Z,17.54
2017-06-10T01:36:07.037Z,17.44
2017-06-10T01:37:20.629Z,17.44
2017-06-10T01:38:37.660Z,17.54
2017-06-10T01:39:51.250Z,17.51
2017-06-10T01:41:01.680Z,17.51
2017-06-10T01:42:11.797Z,17.54
2017-06-10T01:43:27.312Z,17.62
2017-06-10T01:44:42.798Z,17.59
2017-06-10T01:45:55.308Z,17.54
2017-06-10T01:47:04.273Z,17.56
2017-06-10T01:48:13.227Z,17.49
2017-06-10T01:49:22.241Z,17.51
2017-06-10T01:50:31.197Z,17.48
2017-06-10T01:51:40.165Z,17.51
2017-06-10T01:52:49.128Z,17.48
2017-06-10T01:53:58.083Z,17.46
2017-06-10T01:55:07.100Z,17.51
2017-06-10T01:56:16.059Z,17.48
2017-06-10T01:57:25.017Z,17.46
2017-06-10T01:58:35.319Z,17.44
2017-06-10T01:59:45.716Z,17.55
2017-06-10T02:00:54.825Z,17.54
2017-06-10T02:02:03.780Z,17.55
2017-06-10T02:03:17.390Z,17.63
2017-06-10T02:04:27.820Z,17.59
2017-06-10T02:05:38.119Z,17.63
2017-06-10T02:06:49.052Z,17.62
2017-06-10T02:07:58.511Z,17.77
2017-06-10T02:09:07.473Z,17.68
2017-06-10T02:10:16.435Z,17.74
2017-06-10T02:11:25.391Z,17.68
2017-06-10T02:12:34.438Z,17.74
2017-06-10T02:13:43.394Z,17.68
2017-06-10T02:14:52.685Z,17.77
2017-06-10T02:16:01.636Z,17.79
2017-06-10T02:17:10.678Z,17.71
2017-06-10T02:18:19.723Z,17.62
2017-06-10T02:19:28.692Z,17.64
2017-06-10T02:20:37.672Z,17.72
2017-06-10T02:21:46.632Z,17.64
2017-06-10T02:22:55.593Z,17.66
2017-06-10T02:24:04.554Z,17.77
2017-06-10T02:25:13.839Z,17.82
2017-06-10T02:26:22.798Z,17.68
2017-06-10T02:27:31.759Z,17.72
2017-06-10T02:28:40.716Z,17.68
2017-06-10T02:29:49.729Z,17.7
2017-06-10T02:30:58.684Z,17.7
2017-06-10T02:32:07.638Z,17.74
2017-06-10T02:33:16.598Z,17.68
2017-06-10T02:34:25.552Z,17.68
2017-06-10T02:35:34.519Z,17.66
2017-06-10T02:36:43.482Z,17.64
2017-06-10T02:37:52.443Z,17.64
2017-06-10T02:39:01.403Z,17.7
2017-06-10T02:40:10.360Z,17.66
2017-06-10T02:41:19.367Z,17.63
2017-06-10T02:42:28.355Z,17.66
2017-06-10T02:43:37.314Z,17.63
2017-06-10T02:44:46.270Z,17.66
2017-06-10T02:45:55.228Z,17.66
2017-06-10T02:47:04.195Z,17.72
2017-06-10T02:48:13.159Z,17.7
2017-06-10T02:49:22.117Z,17.64
2017-06-10T02:50:31.073Z,17.59
2017-06-10T02:51:40.035Z,17.56
2017-06-10T02:52:48.989Z,17.56
2017-06-10T02:53:57.947Z,17.59
2017-06-10T02:55:06.923Z,17.54
2017-06-10T02:56:15.890Z,17.52
2017-06-10T02:57:24.848Z,17.46
2017-06-10T02:58:33.809Z,17.52
2017-06-10T02:59:42.764Z,17.43
2017-06-10T03:00:51.725Z,17.49
2017-06-10T03:02:00.685Z,17.4
2017-06-10T03:03:09.644Z,17.43
2017-06-10T03:04:18.664Z,17.38
2017-06-10T03:05:27.623Z,17.41
2017-06-10T03:06:36.581Z,17.38
2017-06-10T03:07:45.538Z,17.34
2017-06-10T03:08:54.503Z,17.31
2017-06-10T03:10:03.835Z,17.28
2017-06-10T03:11:12.797Z,17.25
2017-06-10T03:12:21.842Z,17.25
2017-06-10T03:13:30.796Z,17.21
2017-06-10T03:14:39.752Z,17.31
2017-06-10T03:15:48.792Z,17.25
2017-06-10T03:16:57.757Z,17.18
2017-06-10T03:18:06.725Z,17.23
2017-06-10T03:19:15.684Z,17.11
2017-06-10T03:20:24.640Z,17.11
2017-06-10T03:21:33.596Z,17.07
2017-06-10T03:22:42.558Z,17.04
2017-06-10T03:23:51.521Z,17.11
2017-06-10T03:25:00.481Z,17.14
2017-06-10T03:26:09.436Z,17.11
2017-06-10T03:27:18.394Z,17.04
2017-06-10T03:28:27.442Z,17.11
2017-06-10T03:29:36.398Z,16.98
2017-06-10T03:30:45.354Z,16.96
2017-06-10T03:31:54.637Z,17
2017-06-10T03:33:03.600Z,16.91
2017-06-10T03:34:12.557Z,16.89
2017-06-10T03:35:21.523Z,16.83
2017-06-10T03:36:30.485Z,16.83
2017-06-10T03:37:39.523Z,16.88
2017-06-10T03:38:48.530Z,16.89
2017-06-10T03:39:57.491Z,16.89
2017-06-10T03:41:06.454Z,16.85
2017-06-10T03:42:15.408Z,16.82
2017-06-10T03:43:24.376Z,16.81
2017-06-10T03:44:33.336Z,16.78
2017-06-10T03:45:42.309Z,16.81
2017-06-10T03:46:51.263Z,16.73
2017-06-10T03:48:00.223Z,16.73
2017-06-10T03:49:09.185Z,16.82
2017-06-10T03:50:18.515Z,16.78
2017-06-10T03:51:27.477Z,16.88
2017-06-10T03:52:37.272Z,16.89
2017-06-10T03:53:46.227Z,16.86
2017-06-10T03:54:55.264Z,16.76
2017-06-10T03:56:04.476Z,16.75
2017-06-10T03:57:13.430Z,16.82
2017-06-10T03:58:22.388Z,16.82
2017-06-10T03:59:31.340Z,16.76
2017-06-10T04:00:40.298Z,16.71
2017-06-10T04:01:49.505Z,16.75
2017-06-10T04:02:58.461Z,16.68
2017-06-10T04:04:07.743Z,16.73
2017-06-10T04:05:16.699Z,16.75
2017-06-10T04:06:25.659Z,16.71
2017-06-10T04:07:34.868Z,16.7
2017-06-10T04:08:43.911Z,16.71
2017-06-10T04:09:52.868Z,16.71
2017-06-10T04:11:01.827Z,16.75
2017-06-10T04:12:10.792Z,16.75
2017-06-10T04:13:19.752Z,16.71
2017-06-10T04:14:28.710Z,16.78
2017-06-10T04:15:37.662Z,16.73
2017-06-10T04:16:46.622Z,16.73
2017-06-10T04:17:55.578Z,16.7
2017-06-10T04:19:04.588Z,16.73
2017-06-10T04:20:13.550Z,16.68
2017-06-10T04:21:22.508Z,16.81
2017-06-10T04:22:31.466Z,16.73
2017-06-10T04:23:40.424Z,16.82
2017-06-10T04:24:49.434Z,16.76
2017-06-10T04:25:58.390Z,16.73
2017-06-10T04:27:07.433Z,16.7
2017-06-10T04:28:16.387Z,16.68
2017-06-10T04:29:25.346Z,16.68
2017-06-10T04:30:34.302Z,16.68
2017-06-10T04:31:43.344Z,16.68
2017-06-10T04:32:52.390Z,16.7
2017-06-10T04:34:01.350Z,16.66
2017-06-10T04:35:10.339Z,16.71
2017-06-10T04:36:19.347Z,16.58
2017-06-10T04:37:28.305Z,16.68
2017-06-10T04:38:37.260Z,16.7
2017-06-10T04:39:46.309Z,16.75
2017-06-10T04:40:55.266Z,16.71
2017-06-10T04:42:04.223Z,16.7
2017-06-10T04:43:13.181Z,16.63
2017-06-10T04:44:22.140Z,16.76
2017-06-10T04:45:31.096Z,16.68
2017-06-10T04:46:40.049Z,16.67
2017-06-10T04:47:49.054Z,16.75
2017-06-10T04:48:58.008Z,16.73
2017-06-10T04:50:06.979Z,16.68
2017-06-10T04:51:15.936Z,16.75
2017-06-10T04:52:24.894Z,16.75
2017-06-10T04:53:33.902Z,16.75
2017-06-10T04:54:42.866Z,16.81
2017-06-10T04:55:51.820Z,16.81
2017-06-10T04:57:00.772Z,16.81
2017-06-10T04:58:09.726Z,16.79
2017-06-10T04:59:18.686Z,16.85
2017-06-10T05:00:27.642Z,16.96
2017-06-10T05:01:36.924Z,16.91
2017-06-10T05:02:45.969Z,16.91
2017-06-10T05:03:54.920Z,16.96
2017-06-10T05:05:03.881Z,16.96
2017-06-10T05:06:12.841Z,16.96
2017-06-10T05:07:21.802Z,16.94
2017-06-10T05:08:30.761Z,16.94
2017-06-10T05:09:39.752Z,16.98
2017-06-10T05:10:48.710Z,16.89
2017-06-10T05:11:57.671Z,16.88
2017-06-10T05:13:06.648Z,16.85
2017-06-10T05:14:15.602Z,16.97
2017-06-10T05:15:24.559Z,16.97
2017-06-10T05:16:33.513Z,16.89
2017-06-10T05:17:42.472Z,17.01
2017-06-10T05:18:51.427Z,17.11
2017-06-10T05:20:00.394Z,17.04
2017-06-10T05:21:09.352Z,17.11
2017-06-10T05:22:18.455Z,17.18
2017-06-10T05:23:27.415Z,17.21
2017-06-10T05:24:36.371Z,17.21
2017-06-10T05:25:45.325Z,17.31
2017-06-10T05:26:54.278Z,17.15
2017-06-10T05:28:03.235Z,17.19
2017-06-10T05:29:12.188Z,17.21
2017-06-10T05:30:21.232Z,17.18
2017-06-10T05:31:30.200Z,17.23
2017-06-10T05:32:39.158Z,17.28
2017-06-10T05:33:48.112Z,17.33
2017-06-10T05:34:57.067Z,17.26
2017-06-10T05:36:06.032Z,17.33
2017-06-10T05:37:14.995Z,17.36
2017-06-10T05:38:23.952Z,17.31
2017-06-10T05:39:32.915Z,17.37
2017-06-10T05:40:41.879Z,17.46
2017-06-10T05:41:50.921Z,17.43
2017-06-10T05:42:59.907Z,17.43
2017-06-10T05:44:08.865Z,17.46
2017-06-10T05:45:17.821Z,17.51
2017-06-10T05:46:26.775Z,17.48
2017-06-10T05:47:35.729Z,17.51
2017-06-10T05:48:44.687Z,17.58
2017-06-10T05:49:53.652Z,17.56
2017-06-10T05:51:02.614Z,17.55
2017-06-10T05:52:11.582Z,17.63
2017-06-10T05:53:20.542Z,17.64
2017-06-10T05:54:29.498Z,17.62
2017-06-10T05:55:38.456Z,17.59
2017-06-10T05:56:47.752Z,17.63
2017-06-10T05:57:56.711Z,17.74
2017-06-10T05:59:05.669Z,17.71
2017-06-10T06:00:14.628Z,17.68
2017-06-10T06:01:23.587Z,17.71
2017-06-10T06:02:32.636Z,17.71
2017-06-10T06:03:41.596Z,17.74
2017-06-10T06:04:50.562Z,17.71
2017-06-10T06:05:59.522Z,17.78
2017-06-10T06:07:08.477Z,17.75
2017-06-10T06:08:17.436Z,17.79
2017-06-10T06:09:26.395Z,17.75
2017-06-10T06:10:35.356Z,17.78
2017-06-10T06:11:44.310Z,17.75
2017-06-10T06:12:53.269Z,17.78
2017-06-10T06:14:02.250Z,17.84
2017-06-10T06:15:11.212Z,17.9
2017-06-10T06:16:20.191Z,17.89
2017-06-10T06:17:29.150Z,17.82
2017-06-10T06:18:38.111Z,17.9
2017-06-10T06:19:47.075Z,17.93
2017-06-10T06:20:56.361Z,17.92
2017-06-10T06:22:05.314Z,18.02
2017-06-10T06:23:14.366Z,18
2017-06-10T06:24:23.320Z,18.05
2017-06-10T06:25:32.273Z,18.08
2017-06-10T06:26:41.233Z,18.07
2017-06-10T06:27:50.190Z,18.11
2017-06-10T06:28:59.154Z,18.14
2017-06-10T06:30:08.115Z,18.14
2017-06-10T06:31:17.131Z,18.21
2017-06-10T06:32:26.087Z,18.25
2017-06-10T06:33:35.132Z,18.36
2017-06-10T06:34:44.086Z,18.37
2017-06-10T06:35:53.049Z,18.39
2017-06-10T06:37:02.058Z,18.37
2017-06-10T06:38:11.023Z,18.48
2017-06-10T06:39:19.984Z,18.47
2017-06-10T06:40:28.940Z,18.44
2017-06-10T06:41:37.902Z,18.52
2017-06-10T06:42:46.912Z,18.58
2017-06-10T06:43:55.891Z,18.62
2017-06-10T06:45:04.847Z,18.63
2017-06-10T06:46:13.808Z,18.62
2017-06-10T06:47:22.768Z,18.58
2017-06-10T06:48:31.775Z,18.62
2017-06-10T06:49:40.742Z,18.62
2017-06-10T06:50:49.699Z,18.6
2017-06-10T06:51:58.672Z,18.66
2017-06-10T06:53:07.634Z,18.72
2017-06-10T06:54:16.642Z,18.81
2017-06-10T06:55:25.601Z,18.78
2017-06-10T06:56:34.568Z,18.82
2017-06-10T06:57:43.525Z,18.87
2017-06-10T06:58:52.487Z,18.81
2017-06-10T07:00:01.442Z,18.81
2017-06-10T07:01:10.401Z,18.81
2017-06-10T07:02:19.368Z,18.85
2017-06-10T07:03:28.327Z,18.88
2017-06-10T07:04:37.304Z,19
2017-06-10T07:05:46.264Z,19
2017-06-10T07:06:55.218Z,18.92
2017-06-10T07:08:04.180Z,18.98
2017-06-10T07:09:13.233Z,18.98
2017-06-10T07:10:22.194Z,19.07
2017-06-10T07:11:31.153Z,19.13
2017-06-10T07:12:40.118Z,19.13
2017-06-10T07:13:49.076Z,19.11
2017-06-10T07:14:58.034Z,19.16
2017-06-10T07:16:06.999Z,19.16
2017-06-10T07:17:15.954Z,19.22
2017-06-10T07:18:24.910Z,19.32
2017-06-10T07:19:33.870Z,19.28
2017-06-10T07:20:43.164Z,19.33
2017-06-10T07:21:52.126Z,19.36
2017-06-10T07:23:01.406Z,19.44
2017-06-10T07:24:10.367Z,19.46
2017-06-10T07:25:19.326Z,19.43
2017-06-10T07:26:28.286Z,19.5
2017-06-10T07:27:37.248Z,19.51
2017-06-10T07:28:46.205Z,19.55
2017-06-10T07:29:55.171Z,19.56
2017-06-10T07:31:04.130Z,19.58
2017-06-10T07:32:13.117Z,19.65
2017-06-10T07:33:22.077Z,19.66
2017-06-10T07:34:31.178Z,19.62
2017-06-10T07:35:40.141Z,19.78
2017-06-10T07:36:49.100Z,19.77
2017-06-10T07:37:58.069Z,19.71
2017-06-10T07:39:07.033Z,19.74
2017-06-10T07:40:16.257Z,19.65
2017-06-10T07:41:26.255Z,19.76
2017-06-10T07:42:36.045Z,19.78
2017-06-10T07:43:46.063Z,19.86
2017-06-10T07:44:55.907Z,19.88
2017-06-10T07:46:05.968Z,19.99
2017-06-10T07:47:16.099Z,19.96
2017-06-10T07:48:25.953Z,20.02
2017-06-10T07:49:35.674Z,20.05
2017-06-10T07:50:44.729Z,20.02
2017-06-10T07:51:54.308Z,20.06
2017-06-10T07:53:03.900Z,20.14
2017-06-10T07:54:13.601Z,20.06
2017-06-10T07:55:23.144Z,20.16
2017-06-10T07:56:32.194Z,20.17
2017-06-10T07:57:41.159Z,20.18
2017-06-10T07:58:50.276Z,20.23
2017-06-10T07:59:59.231Z,20.24
2017-06-10T08:01:08.582Z,20.29
2017-06-10T08:02:17.740Z,20.31
2017-06-10T08:03:26.751Z,20.33
2017-06-10T08:04:35.707Z,20.32
2017-06-10T08:05:44.678Z,20.36
2017-06-10T08:06:53.729Z,20.39
2017-06-10T08:08:02.778Z,20.42
2017-06-10T08:09:11.801Z,20.39
2017-06-10T08:10:20.933Z,20.35
2017-06-10T08:11:30.758Z,20.31
2017-06-10T08:12:40.564Z,20.32
2017-06-10T08:13:51.025Z,20.32
2017-06-10T08:15:00.857Z,20.35
2017-06-10T08:16:10.542Z,20.28
2017-06-10T08:17:20.684Z,20.42
2017-06-10T08:18:30.678Z,20.47
2017-06-10T08:19:40.619Z,20.5
2017-06-10T08:20:50.513Z,20.43
2017-06-10T08:21:59.478Z,20.47
2017-06-10T08:23:08.902Z,20.47
2017-06-10T08:24:18.649Z,20.36
2017-06-10T08:25:28.240Z,20.42
2017-06-10T08:26:37.204Z,20.38
2017-06-10T08:27:46.473Z,20.43
2017-06-10T08:28:55.429Z,20.51
2017-06-10T08:30:04.872Z,20.52
2017-06-10T08:31:14.278Z,20.59
2017-06-10T08:32:23.958Z,20.74
2017-06-10T08:33:33.070Z,20.87
2017-06-10T08:34:42.298Z,20.92
2017-06-10T08:35:51.576Z,20.97
2017-06-10T08:37:00.534Z,20.97
2017-06-10T08:38:09.494Z,20.89
2017-06-10T08:39:18.453Z,20.91
2017-06-10T08:40:27.423Z,20.92
2017-06-10T08:41:36.394Z,20.92
2017-06-10T08:42:45.353Z,20.92
2017-06-10T08:43:54.405Z,21.14
2017-06-10T08:45:03.366Z,21.22
2017-06-10T08:46:12.329Z,21.25
2017-06-10T08:47:21.291Z,21.24
2017-06-10T08:48:30.249Z,21.22
2017-06-10T08:49:39.218Z,21.28
2017-06-10T08:50:48.294Z,21.4
2017-06-10T08:51:57.547Z,21.38
2017-06-10T08:53:06.759Z,21.52
2017-06-10T08:54:16.069Z,21.64
2017-06-10T08:55:25.098Z,21.62
2017-06-10T08:56:34.323Z,21.8
2017-06-10T08:57:43.378Z,21.86
2017-06-10T08:58:52.568Z,21.99
2017-06-10T09:00:01.861Z,22.02
2017-06-10T09:01:11.226Z,22.02
2017-06-10T09:02:20.470Z,22.03
2017-06-10T09:03:29.826Z,22
2017-06-10T09:04:38.935Z,21.83
2017-06-10T09:05:48.045Z,21.77
2017-06-10T09:06:57.069Z,21.72
2017-06-10T09:08:06.141Z,21.61
2017-06-10T09:09:15.180Z,21.56
2017-06-10T09:10:24.145Z,21.56
2017-06-10T09:11:33.104Z,21.42
2017-06-10T09:12:42.075Z,21.5
2017-06-10T09:13:51.048Z,21.54
2017-06-10T09:15:00.025Z,21.62
2017-06-10T09:16:09.249Z,21.62
2017-06-10T09:17:18.692Z,21.71
2017-06-10T09:18:27.769Z,21.77
2017-06-10T09:19:36.765Z,21.75
2017-06-10T09:20:45.823Z,21.92
2017-06-10T09:21:54.913Z,22
2017-06-10T09:23:04.045Z,22.09
2017-06-10T09:24:13.155Z,22.03
2017-06-10T09:25:22.117Z,22.03
2017-06-10T09:26:31.178Z,21.99
2017-06-10T09:27:40.453Z,22.03
2017-06-10T09:28:49.469Z,21.99
2017-06-10T09:29:58.633Z,22.02
2017-06-10T09:31:08.291Z,22.03
2017-06-10T09:32:17.355Z,22.14
2017-06-10T09:33:26.494Z,22.18
2017-06-10T09:34:35.697Z,22.3
2017-06-10T09:35:44.990Z,22.36
2017-06-10T09:36:54.117Z,22.2
2017-06-10T09:38:03.184Z,22.25
2017-06-10T09:39:12.151Z,22.28
2017-06-10T09:40:21.170Z,22.24
2017-06-10T09:41:30.328Z,22.22
2017-06-10T09:42:39.443Z,22.28
2017-06-10T09:43:48.406Z,22.27
2017-06-10T09:44:57.470Z,22.28
2017-06-10T09:46:06.513Z,22.33
2017-06-10T09:47:15.528Z,22.31
2017-06-10T09:48:24.492Z,22.4
2017-06-10T09:49:33.542Z,22.49
2017-06-10T09:50:42.578Z,22.51
2017-06-10T09:51:51.624Z,22.46
2017-06-10T09:53:00.862Z,22.46
2017-06-10T09:54:09.818Z,22.49
2017-06-10T09:55:18.783Z,22.39
2017-06-10T09:56:27.757Z,22.37
2017-06-10T09:57:36.717Z,22.39
2017-06-10T09:58:45.733Z,22.37
2017-06-10T09:59:54.780Z,22.39
2017-06-10T10:01:03.746Z,22.43
2017-06-10T10:02:12.706Z,22.45
2017-06-10T10:03:21.664Z,22.46
2017-06-10T10:04:30.622Z,22.51
2017-06-10T10:05:39.587Z,22.4
2017-06-10T10:06:48.554Z,22.49
2017-06-10T10:07:57.515Z,22.39
2017-06-10T10:09:06.471Z,22.25
2017-06-10T10:10:15.821Z,22.15
2017-06-10T10:11:24.785Z,22.05
2017-06-10T10:12:33.750Z,22.03
2017-06-10T10:13:42.817Z,22.02
2017-06-10T10:14:51.777Z,22.14
2017-06-10T10:16:00.738Z,22.18
2017-06-10T10:17:09.703Z,22.2
2017-06-10T10:18:18.664Z,22.28
2017-06-10T10:19:27.629Z,22.21
2017-06-10T10:20:36.694Z,22.28
2017-06-10T10:21:46.032Z,22.27
2017-06-10T10:22:55.007Z,22.31
2017-06-10T10:24:04.074Z,22.47
2017-06-10T10:25:13.127Z,22.46
2017-06-10T10:26:22.089Z,22.54
2017-06-10T10:27:31.376Z,22.64
2017-06-10T10:28:40.342Z,22.64
2017-06-10T10:29:49.304Z,22.77
2017-06-10T10:30:58.281Z,22.76
2017-06-10T10:32:07.335Z,22.75
2017-06-10T10:33:16.298Z,22.83
2017-06-10T10:34:25.259Z,22.7
2017-06-10T10:35:34.313Z,22.68
2017-06-10T10:36:43.602Z,22.73
2017-06-10T10:37:52.563Z,22.73
2017-06-10T10:39:01.571Z,22.83
2017-06-10T10:40:10.534Z,22.7
2017-06-10T10:41:19.497Z,22.57
2017-06-10T10:42:28.471Z,22.46
2017-06-10T10:43:37.435Z,22.47
2017-06-10T10:44:46.538Z,22.49
2017-06-10T10:45:55.498Z,22.51
2017-06-10T10:47:04.490Z,22.52
2017-06-10T10:48:14.193Z,22.43
2017-06-10T10:49:23.242Z,22.42
2017-06-10T10:50:32.208Z,22.28
2017-06-10T10:51:41.167Z,22.25
2017-06-10T10:52:50.216Z,22.25
2017-06-10T10:53:59.180Z,22.25
2017-06-10T10:55:08.142Z,22.36
2017-06-10T10:56:17.108Z,22.31
2017-06-10T10:57:26.158Z,22.45
2017-06-10T10:58:35.120Z,22.6
2017-06-10T10:59:44.176Z,22.64
2017-06-10T11:00:53.142Z,22.62
2017-06-10T11:02:02.210Z,22.75
2017-06-10T11:03:11.169Z,22.73
2017-06-10T11:04:20.130Z,22.8
2017-06-10T11:05:29.088Z,22.75
2017-06-10T11:06:38.056Z,22.67
2017-06-10T11:07:47.074Z,22.68
2017-06-10T11:08:56.036Z,22.68
2017-06-10T11:10:04.995Z,22.75
2017-06-10T11:11:13.957Z,22.75
2017-06-10T11:12:22.921Z,22.7
2017-06-10T11:13:31.956Z,22.79
2017-06-10T11:14:41.006Z,22.88
2017-06-10T11:15:49.969Z,22.86
2017-06-10T11:16:58.934Z,22.79
2017-06-10T11:18:07.902Z,22.9
2017-06-10T11:19:16.864Z,22.94
2017-06-10T11:20:25.824Z,23.01
2017-06-10T11:21:34.813Z,23.05
2017-06-10T11:22:43.774Z,23
2017-06-10T11:23:52.746Z,22.94
2017-06-10T11:25:01.764Z,22.94
2017-06-10T11:26:10.753Z,22.86
2017-06-10T11:27:19.712Z,22.91
2017-06-10T11:28:28.910Z,22.67
2017-06-10T11:29:37.902Z,22.77
2017-06-10T11:30:46.946Z,22.75
2017-06-10T11:31:55.911Z,22.64
2017-06-10T11:33:04.883Z,22.62
2017-06-10T11:34:13.850Z,22.6
2017-06-10T11:35:22.841Z,22.57
2017-06-10T11:36:31.892Z,22.55
2017-06-10T11:37:40.859Z,22.57
2017-06-10T11:38:50.155Z,22.67
2017-06-10T11:39:59.124Z,22.72
2017-06-10T11:41:08.087Z,22.64
2017-06-10T11:42:17.046Z,22.7
2017-06-10T11:43:26.005Z,22.82
2017-06-10T11:44:34.970Z,22.85
2017-06-10T11:45:43.937Z,23
2017-06-10T11:46:52.907Z,22.94
2017-06-10T11:48:01.871Z,23.05
2017-06-10T11:49:10.838Z,22.98
2017-06-10T11:50:19.801Z,23.05
2017-06-10T11:51:28.760Z,23.15
2017-06-10T11:52:37.752Z,23.19
2017-06-10T11:53:46.715Z,23.19
2017-06-10T11:54:55.680Z,23.19
2017-06-10T11:56:04.638Z,23.2
2017-06-10T11:57:13.597Z,23.13
2017-06-10T11:58:22.568Z,23.16
2017-06-10T11:59:31.854Z,23.16
2017-06-10T12:00:40.821Z,23.15
2017-06-10T12:01:49.818Z,23.1
2017-06-10T12:02:58.782Z,23
2017-06-10T12:04:07.744Z,23
2017-06-10T12:05:16.792Z,22.94
2017-06-10T12:06:25.758Z,22.91
2017-06-10T12:07:34.737Z,22.88
2017-06-10T12:08:43.697Z,22.86
2017-06-10T12:09:52.663Z,22.88
2017-06-10T12:11:01.627Z,22.98
2017-06-10T12:12:10.705Z,23.04
2017-06-10T12:13:19.822Z,23.09
2017-06-10T12:14:28.879Z,23.12
2017-06-10T12:15:37.841Z,23.22
2017-06-10T12:16:46.803Z,23.25
2017-06-10T12:17:55.765Z,23.23
2017-06-10T12:19:04.725Z,23.31
2017-06-10T12:20:13.694Z,23.32
2017-06-10T12:21:22.656Z,23.35
2017-06-10T12:22:31.616Z,23.32
2017-06-10T12:23:40.672Z,23.4
2017-06-10T12:24:49.674Z,23.38
2017-06-10T12:25:58.636Z,23.32
2017-06-10T12:27:07.599Z,23.35
2017-06-10T12:28:16.558Z,23.36
2017-06-10T12:29:25.518Z,23.38
2017-06-10T12:30:34.486Z,23.27
2017-06-10T12:31:43.448Z,23.27
2017-06-10T12:32:52.432Z,23.25
2017-06-10T12:34:01.589Z,23.22
2017-06-10T12:35:10.548Z,23.1
2017-06-10T12:36:19.509Z,23.12
2017-06-10T12:37:28.479Z,23.07
2017-06-10T12:38:37.697Z,23.04
2017-06-10T12:39:46.843Z,22.97
2017-06-10T12:40:55.804Z,22.92
2017-06-10T12:42:04.851Z,23.01
2017-06-10T12:43:13.818Z,23.04
2017-06-10T12:44:22.782Z,23.17
2017-06-10T12:45:31.742Z,23.17
2017-06-10T12:46:40.959Z,23.22
2017-06-10T12:47:49.926Z,23.27
2017-06-10T12:48:58.927Z,23.35
2017-06-10T12:50:07.957Z,23.27
2017-06-10T12:51:16.929Z,23.28
2017-06-10T12:52:26.723Z,23.35
2017-06-10T12:53:35.970Z,23.35
2017-06-10T12:54:45.033Z,23.35
2017-06-10T12:55:53.994Z,23.38
2017-06-10T12:57:02.954Z,23.39
2017-06-10T12:58:11.912Z,23.35
2017-06-10T12:59:20.872Z,23.32
2017-06-10T13:00:30.172Z,23.33
2017-06-10T13:01:39.463Z,23.28
2017-06-10T13:02:48.477Z,23.28
2017-06-10T13:03:57.528Z,23.17
2017-06-10T13:05:06.856Z,23.16
2017-06-10T13:06:15.820Z,23.12
2017-06-10T13:07:24.915Z,23.09
2017-06-10T13:08:33.929Z,23.01
2017-06-10T13:09:42.928Z,23
2017-06-10T13:10:51.899Z,22.97
2017-06-10T13:12:00.864Z,23
2017-06-10T13:13:09.829Z,22.95
2017-06-10T13:14:18.879Z,22.83
2017-06-10T13:15:27.844Z,22.9
2017-06-10T13:16:36.819Z,22.91
2017-06-10T13:17:45.780Z,22.9
2017-06-10T13:18:54.740Z,22.9
2017-06-10T13:20:03.704Z,22.92
2017-06-10T13:21:13.125Z,22.94
2017-06-10T13:22:22.098Z,22.95
2017-06-10T13:23:31.195Z,23.01
2017-06-10T13:24:40.935Z,23.12
2017-06-10T13:25:49.897Z,23.07
2017-06-10T13:26:58.875Z,23.04
2017-06-10T13:28:07.917Z,23.01
2017-06-10T13:29:17.210Z,23
2017-06-10T13:30:26.178Z,23
2017-06-10T13:31:35.148Z,23.02
2017-06-10T13:32:44.197Z,23.01
2017-06-10T13:33:53.160Z,22.97
2017-06-10T13:35:02.117Z,23.01
2017-06-10T13:36:11.075Z,23.05
2017-06-10T13:37:20.035Z,23.1
2017-06-10T13:38:28.998Z,23.25
2017-06-10T13:39:37.957Z,23.31
2017-06-10T13:40:46.926Z,23.32
2017-06-10T13:41:55.912Z,23.35
2017-06-10T13:43:05.545Z,23.36
2017-06-10T13:44:14.916Z,23.39
2017-06-10T13:45:23.883Z,23.43
2017-06-10T13:46:32.850Z,23.35
2017-06-10T13:47:41.815Z,23.47
2017-06-10T13:48:50.824Z,23.47
2017-06-10T13:49:59.786Z,23.54
2017-06-10T13:51:08.758Z,23.58
2017-06-10T13:52:17.722Z,23.53
2017-06-10T13:53:26.715Z,23.58
2017-06-10T13:54:35.804Z,23.43
2017-06-10T13:55:44.777Z,23.46
2017-06-10T13:56:54.292Z,23.38
2017-06-10T13:58:03.782Z,23.39
2017-06-10T13:59:12.738Z,23.38
2017-06-10T14:00:21.748Z,23.46
2017-06-10T14:01:30.712Z,23.47
2017-06-10T14:02:39.710Z,23.6
2017-06-10T14:03:48.674Z,23.61
2017-06-10T14:04:57.634Z,23.76
2017-06-10T14:06:06.652Z,23.68
2017-06-10T14:07:15.621Z,23.73
2017-06-10T14:08:24.676Z,23.7
2017-06-10T14:09:33.729Z,23.72
2017-06-10T14:10:42.692Z,23.75
2017-06-10T14:11:51.656Z,23.61
2017-06-10T14:13:00.628Z,23.58
2017-06-10T14:14:09.591Z,23.58
2017-06-10T14:15:18.553Z,23.51
2017-06-10T14:16:27.530Z,23.51
2017-06-10T14:17:36.495Z,23.5
2017-06-10T14:18:45.454Z,23.5
2017-06-10T14:19:54.620Z,23.4
2017-06-10T14:21:03.612Z,23.4
2017-06-10T14:22:12.597Z,23.5
2017-06-10T14:23:21.566Z,23.48
2017-06-10T14:24:30.600Z,23.55
2017-06-10T14:25:39.610Z,23.58
2017-06-10T14:26:48.897Z,23.47
2017-06-10T14:27:57.859Z,23.63
2017-06-10T14:29:06.839Z,23.57
2017-06-10T14:30:15.800Z,23.58
2017-06-10T14:31:24.880Z,23.63
2017-06-10T14:32:33.842Z,23.69
2017-06-10T14:33:42.815Z,23.75
2017-06-10T14:34:51.868Z,23.79
2017-06-10T14:36:00.831Z,23.79
2017-06-10T14:37:09.799Z,23.9
2017-06-10T14:38:18.757Z,23.95
2017-06-10T14:39:27.724Z,23.98
2017-06-10T14:40:36.747Z,24.06
2017-06-10T14:41:45.722Z,24.06
2017-06-10T14:42:54.681Z,24.05
2017-06-10T14:44:03.653Z,23.94
2017-06-10T14:45:12.620Z,24.02
2017-06-10T14:46:21.912Z,23.95
2017-06-10T14:47:30.885Z,23.93
2017-06-10T14:48:39.845Z,23.94
2017-06-10T14:49:48.817Z,23.91
2017-06-10T14:50:57.778Z,23.88
2017-06-10T14:52:06.797Z,23.91
2017-06-10T14:53:15.772Z,23.9
2017-06-10T14:54:24.732Z,23.88